Time;durP1;ratioP1;P1;durP2;ratioP2;P2;SDS_P1;SDS_P2;PMS_P1;PMS_P2;Temp;Humidity;BMP_temperature;BMP_pressure;BME280_temperature;BME280_humidity;BME280_pressure;Samples;Min_cycle;Max_cycle;Signal;HPM_P1;HPM_P2
2024/01/14 00:00:06;;;;;;;0.13;0.13;;;;;;;-1.28;100.00;96369.22;6116373;23;20253;-75
2024/01/14 00:02:53;;;;;;;0.20;0.20;;;;;;;-1.27;100.00;96362.16;6105635;23;20021;-75
2024/01/14 00:05:39;;;;;;;0.20;0.20;;;;;;;-1.34;100.00;96356.78;6106477;23;20022;-75
2024/01/14 00:08:25;;;;;;;0.10;0.10;;;;;;;-1.33;100.00;96373.34;6106370;23;20021;-76
2024/01/14 00:11:11;;;;;;;0.20;0.20;;;;;;;-1.28;100.00;96377.09;6106703;23;20022;-76
2024/01/14 00:13:57;;;;;;;0.20;0.20;;;;;;;-1.30;100.00;96365.94;6103828;23;20026;-77
2024/01/14 00:16:43;;;;;;;0.20;0.20;;;;;;;-1.29;100.00;96372.00;6107530;23;20045;-78
2024/01/14 00:19:28;;;;;;;0.20;0.20;;;;;;;-1.41;100.00;96368.97;6106056;23;20026;-75
2024/01/14 00:22:16;;;;;;;0.20;0.20;;;;;;;-1.35;100.00;96370.09;6108113;23;20089;-77
2024/01/14 00:25:02;;;;;;;0.20;0.20;;;;;;;-1.34;100.00;96361.22;6107904;23;20044;-76
2024/01/14 00:27:48;;;;;;;0.20;0.20;;;;;;;-1.27;100.00;96354.28;6085459;23;20109;-76
2024/01/14 00:30:33;;;;;;;0.13;0.13;;;;;;;-1.33;100.00;96342.66;6090520;23;20431;-78
2024/01/14 00:33:20;;;;;;;0.20;0.20;;;;;;;-1.30;100.00;96354.63;6111635;23;20110;-79
2024/01/14 00:36:06;;;;;;;0.20;0.20;;;;;;;-1.36;100.00;96347.47;6134016;23;20052;-77
2024/01/14 00:38:52;;;;;;;0.20;0.20;;;;;;;-1.25;100.00;96339.97;6114312;23;20025;-78
2024/01/14 00:41:38;;;;;;;0.10;0.10;;;;;;;-1.26;100.00;96346.22;6134730;23;20398;-77
2024/01/14 00:44:26;;;;;;;0.20;0.20;;;;;;;-1.24;100.00;96344.25;6134998;23;20412;-78
2024/01/14 00:47:12;;;;;;;0.20;0.20;;;;;;;-1.30;100.00;96331.00;6137195;23;20022;-76
2024/01/14 00:49:58;;;;;;;0.20;0.20;;;;;;;-1.26;100.00;96332.25;6134544;23;20030;-78
2024/01/14 00:52:44;;;;;;;0.20;0.20;;;;;;;-1.28;100.00;96334.25;6112274;23;20029;-77
2024/01/14 00:55:29;;;;;;;0.20;0.20;;;;;;;-1.33;100.00;96329.53;6135441;23;20477;-76
2024/01/14 00:58:15;;;;;;;0.20;0.20;;;;;;;-1.32;100.00;96323.31;6134614;23;20093;-77
2024/01/14 01:01:02;;;;;;;0.20;0.20;;;;;;;-1.28;100.00;96329.00;6135550;23;20397;-76
2024/01/14 01:03:48;;;;;;;0.20;0.20;;;;;;;-1.32;100.00;96317.22;6133862;23;20125;-76
2024/01/14 01:06:34;;;;;;;0.20;0.20;;;;;;;-1.30;100.00;96321.31;6138174;23;20855;-75
2024/01/14 01:09:20;;;;;;;0.20;0.20;;;;;;;-1.29;100.00;96309.00;6136464;23;20141;-77
2024/01/14 01:12:07;;;;;;;0.20;0.20;;;;;;;-1.24;100.00;96299.59;6134302;23;20445;-76
2024/01/14 01:14:53;;;;;;;0.20;0.20;;;;;;;-1.22;100.00;96299.41;6112910;23;20035;-77
2024/01/14 01:17:39;;;;;;;0.20;0.20;;;;;;;-1.22;100.00;96299.41;6133949;23;20376;-77
2024/01/14 01:20:25;;;;;;;0.20;0.20;;;;;;;-1.20;100.00;96302.69;6133679;23;20025;-76
2024/01/14 01:23:11;;;;;;;0.20;0.20;;;;;;;-1.20;100.00;96302.69;6135320;23;20028;-77
2024/01/14 01:25:57;;;;;;;0.20;0.20;;;;;;;-1.19;100.00;96301.69;6133418;23;20025;-77
2024/01/14 01:28:43;;;;;;;0.20;0.20;;;;;;;-1.24;100.00;96291.72;6134268;23;20033;-78
2024/01/14 01:31:29;;;;;;;0.20;0.20;;;;;;;-1.28;100.00;96289.63;6135352;23;20378;-78
2024/01/14 01:34:15;;;;;;;0.20;0.20;;;;;;;-1.38;100.00;96287.25;6134695;23;20030;-77
2024/01/14 01:37:02;;;;;;;0.20;0.20;;;;;;;-1.35;100.00;96284.28;6135781;23;20026;-77
2024/01/14 01:39:48;;;;;;;0.20;0.20;;;;;;;-1.41;100.00;96284.97;6136982;23;20124;-75
2024/01/14 01:42:34;;;;;;;0.20;0.20;;;;;;;-1.38;100.00;96291.69;6136652;23;20501;-77
2024/01/14 01:45:20;;;;;;;0.20;0.20;;;;;;;-1.41;100.00;96284.97;6114872;23;20041;-76
2024/01/14 01:48:06;;;;;;;0.17;0.17;;;;;;;-1.36;100.00;96294.97;6140001;23;20504;-76
2024/01/14 01:50:54;;;;;;;0.20;0.20;;;;;;;-1.46;100.00;96285.53;6138710;23;20017;-76
2024/01/14 01:53:40;;;;;;;0.20;0.20;;;;;;;-1.39;100.00;96274.31;6135162;23;20105;-77
2024/01/14 01:56:27;;;;;;;0.20;0.20;;;;;;;-1.37;100.00;96277.56;6138225;23;20528;-76
2024/01/14 01:59:13;;;;;;;0.20;0.20;;;;;;;-1.37;100.00;96282.81;6114046;23;20026;-76
2024/01/14 02:02:00;;;;;;;0.20;0.20;;;;;;;-1.35;100.00;96278.19;6092893;23;20089;-75
2024/01/14 02:04:49;;;;;;;0.20;0.20;;;;;;;-1.45;100.00;96281.91;6105889;23;20320;-76
2024/01/14 02:07:36;;;;;;;0.20;0.20;;;;;;;-1.49;100.00;96272.75;6107038;23;20033;-75
2024/01/14 02:10:23;;;;;;;0.20;0.20;;;;;;;-1.46;100.00;96280.28;6068984;23;20225;-75
2024/01/14 02:13:08;;;;;;;0.20;0.20;;;;;;;-1.46;100.00;96275.03;6108782;23;20026;-77
2024/01/14 02:15:54;;;;;;;0.20;0.20;;;;;;;-1.45;100.00;96270.59;6110007;23;20385;-75
2024/01/14 02:18:40;;;;;;;0.20;0.20;;;;;;;-1.41;100.00;96272.66;6107569;23;20028;-78
2024/01/14 02:21:32;;;;;;;0.10;0.10;;;;;;;-1.39;100.00;96275.13;6087127;23;20300;-77
2024/01/14 02:24:31;;;;;;;0.20;0.20;;;;;;;-1.43;100.00;96272.03;6108495;23;20421;-76
2024/01/14 02:27:17;;;;;;;0.20;0.20;;;;;;;-1.41;100.00;96258.72;6107263;23;20032;-76
2024/01/14 02:30:03;;;;;;;0.20;0.20;;;;;;;-1.51;100.00;96256.34;6088386;23;20026;-79
2024/01/14 02:32:50;;;;;;;0.20;0.20;;;;;;;-1.47;100.00;96252.41;6135843;23;20049;-75
2024/01/14 02:35:36;;;;;;;0.20;0.20;;;;;;;-1.41;100.00;96243.78;6137947;23;20049;-75
2024/01/14 02:38:22;;;;;;;0.20;0.20;;;;;;;-1.33;100.00;96224.53;6135016;23;20100;-78
2024/01/14 02:41:08;;;;;;;0.13;0.13;;;;;;;-1.59;100.00;96234.63;6119037;23;20029;-76
2024/01/14 02:43:54;;;;;;;0.20;0.20;;;;;;;-1.51;100.00;96229.31;6114142;23;20057;-76
2024/01/14 02:46:40;;;;;;;0.20;0.20;;;;;;;-1.54;100.00;96235.72;6137627;23;20484;-76
2024/01/14 02:49:25;;;;;;;0.20;0.20;;;;;;;-1.42;100.00;96226.41;6135438;23;20640;-76
2024/01/14 02:52:12;;;;;;;0.20;0.20;;;;;;;-1.26;100.00;96230.69;6135065;23;20084;-75
2024/01/14 02:54:58;;;;;;;0.17;0.17;;;;;;;-1.38;100.00;96228.69;6134308;23;20029;-76
2024/01/14 02:57:45;;;;;;;0.20;0.20;;;;;;;-1.33;100.00;96234.19;6135432;23;20356;-77
2024/01/14 03:00:31;;;;;;;0.20;0.20;;;;;;;-1.57;100.00;96222.13;6136299;23;20080;-77
2024/01/14 03:03:17;;;;;;;0.20;0.20;;;;;;;-1.73;100.00;96217.84;6135567;23;20520;-76
2024/01/14 03:06:03;;;;;;;0.15;0.15;;;;;;;-1.75;100.00;96217.22;6116999;23;20476;-76
2024/01/14 03:08:49;;;;;;;0.20;0.20;;;;;;;-1.75;100.00;96217.22;6135417;23;20025;-76
2024/01/14 03:11:35;;;;;;;0.20;0.20;;;;;;;-1.57;100.00;96216.88;6135358;23;20025;-77
2024/01/14 03:14:21;;;;;;;0.20;0.20;;;;;;;-1.49;100.00;96227.31;6135174;23;20029;-76
2024/01/14 03:17:07;;;;;;;0.10;0.10;;;;;;;-1.45;100.00;96211.03;6137497;23;20025;-78
2024/01/14 03:19:53;;;;;;;0.10;0.10;;;;;;;-1.37;100.00;96219.81;6136533;23;20025;-75
2024/01/14 03:22:39;;;;;;;0.20;0.20;;;;;;;-1.33;100.00;96207.94;6135061;23;20028;-78
2024/01/14 03:25:25;;;;;;;0.20;0.20;;;;;;;-1.26;100.00;96208.88;6134873;23;20362;-76
2024/01/14 03:28:11;;;;;;;0.20;0.20;;;;;;;-1.28;100.00;96213.50;6135600;23;20021;-77
2024/01/14 03:30:57;;;;;;;0.20;0.20;;;;;;;-1.29;100.00;96203.97;6134895;23;20052;-77
2024/01/14 03:33:43;;;;;;;0.20;0.20;;;;;;;-1.53;100.00;96198.00;6135345;23;20026;-78
2024/01/14 03:36:29;;;;;;;0.20;0.20;;;;;;;-1.38;100.00;96195.38;6134765;23;21003;-79
2024/01/14 03:39:15;;;;;;;0.20;0.20;;;;;;;-1.54;100.00;96188.50;6136877;23;20032;-79
2024/01/14 03:42:01;;;;;;;0.20;0.20;;;;;;;-1.40;100.00;96194.75;6137787;23;20025;-78
2024/01/14 03:44:46;;;;;;;0.20;0.20;;;;;;;-1.45;100.00;96192.66;6135950;23;20457;-78
2024/01/14 03:47:32;;;;;;;0.20;0.20;;;;;;;-1.34;100.00;96190.56;6136345;23;20029;-76
2024/01/14 03:50:18;;;;;;;0.13;0.13;;;;;;;-1.44;100.00;96186.41;6134167;23;20025;-76
2024/01/14 03:53:04;;;;;;;0.20;0.20;;;;;;;-1.52;100.00;96181.25;6134311;23;20475;-77
2024/01/14 03:55:50;;;;;;;0.20;0.20;;;;;;;-1.66;100.00;96179.41;6134133;23;20032;-76
2024/01/14 03:58:37;;;;;;;0.20;0.20;;;;;;;-1.49;100.00;96172.19;6134587;23;20021;-76
2024/01/14 04:01:23;;;;;;;0.10;0.10;;;;;;;-1.56;100.00;96168.66;6133938;23;20017;-78
2024/01/14 04:04:09;;;;;;;0.20;0.20;;;;;;;-1.70;100.00;96173.72;6135547;23;20308;-78
2024/01/14 04:06:55;;;;;;;0.20;0.20;;;;;;;-1.93;100.00;96172.97;6134752;23;20444;-77
2024/01/14 04:09:41;;;;;;;0.20;0.20;;;;;;;-1.89;100.00;96168.97;6135931;23;20021;-78
2024/01/14 04:12:28;;;;;;;0.20;0.20;;;;;;;-2.07;100.00;96168.47;6133066;23;20026;-76
2024/01/14 04:15:14;;;;;;;0.20;0.20;;;;;;;-1.99;100.00;96177.09;6135455;23;20453;-77
2024/01/14 04:17:59;;;;;;;0.10;0.10;;;;;;;-1.73;100.00;96163.56;6116253;23;20025;-77
2024/01/14 04:20:45;;;;;;;0.10;0.10;;;;;;;-1.78;100.00;96160.69;6112535;23;20025;-76
2024/01/14 04:23:31;;;;;;;0.20;0.20;;;;;;;-1.65;100.00;96157.44;6115094;23;20041;-75
2024/01/14 04:26:21;;;;;;;0.10;0.10;;;;;;;-1.50;100.00;96154.81;6136554;23;20021;-74
2024/01/14 04:29:07;;;;;;;0.20;0.20;;;;;;;-1.54;100.00;96151.75;6136963;23;20033;-77
2024/01/14 04:31:53;;;;;;;0.20;0.20;;;;;;;-1.55;100.00;96155.38;6135271;23;20052;-75
2024/01/14 04:34:39;;;;;;;0.20;0.20;;;;;;;-1.46;100.00;96159.53;6136202;23;20026;-77
2024/01/14 04:37:25;;;;;;;0.20;0.20;;;;;;;-1.61;100.00;96150.03;6134877;23;20021;-76
2024/01/14 04:40:11;;;;;;;0.20;0.20;;;;;;;-1.92;100.00;96144.91;6136160;23;20403;-76
2024/01/14 04:42:57;;;;;;;0.20;0.20;;;;;;;-2.05;100.00;96143.69;6133838;23;20025;-78
2024/01/14 04:45:42;;;;;;;0.20;0.20;;;;;;;-1.86;100.00;96144.22;6135028;23;20029;-78
2024/01/14 04:48:28;;;;;;;0.20;0.20;;;;;;;-1.63;100.00;96142.34;6134100;23;20105;-76
2024/01/14 04:51:15;;;;;;;0.20;0.20;;;;;;;-1.68;100.00;96134.19;6134929;23;20032;-79
2024/01/14 04:54:02;;;;;;;0.20;0.20;;;;;;;-1.57;100.00;96130.28;6136558;23;20335;-77
2024/01/14 04:56:48;;;;;;;0.20;0.20;;;;;;;-1.88;100.00;96127.81;6135495;23;20040;-75
2024/01/14 04:59:34;;;;;;;0.20;0.20;;;;;;;-1.95;100.00;96143.44;6134338;23;20025;-77
2024/01/14 05:02:20;;;;;;;0.20;0.20;;;;;;;-1.83;100.00;96136.78;6135098;23;20017;-77
2024/01/14 05:05:06;;;;;;;0.20;0.20;;;;;;;-1.62;100.00;96135.28;6136661;23;20082;-77
2024/01/14 05:07:52;;;;;;;0.20;0.20;;;;;;;-1.53;100.00;96135.00;6137596;23;20526;-76
2024/01/14 05:10:41;;;;;;;0.20;0.20;;;;;;;-1.49;100.00;96136.25;6136259;23;20030;-78
2024/01/14 05:13:27;;;;;;;0.17;0.17;;;;;;;-1.43;100.00;96143.41;6114223;23;20699;-76
2024/01/14 05:16:13;;;;;;;0.20;0.20;;;;;;;-1.53;100.00;96132.38;6135684;23;20057;-77
2024/01/14 05:18:58;;;;;;;0.20;0.20;;;;;;;-1.44;100.00;96130.47;6137438;23;20029;-79
2024/01/14 05:21:44;;;;;;;0.20;0.20;;;;;;;-1.55;100.00;96128.31;6139296;23;20192;-77
2024/01/14 05:24:30;;;;;;;0.20;0.20;;;;;;;-1.56;100.00;96132.72;6140453;23;20112;-76
2024/01/14 05:27:19;;;;;;;0.20;0.20;;;;;;;-1.53;100.00;96123.69;6139110;23;20036;-76
2024/01/14 05:30:06;;;;;;;0.20;0.20;;;;;;;-1.57;100.00;96119.78;6119132;23;20021;-77
2024/01/14 05:32:52;;;;;;;0.20;0.20;;;;;;;-1.67;100.00;96106.94;6138807;23;20546;-77
2024/01/14 05:35:37;;;;;;;0.20;0.20;;;;;;;-1.62;100.00;96109.84;6139385;23;20021;-75
2024/01/14 05:38:23;;;;;;;0.30;0.30;;;;;;;-1.59;100.00;96116.53;6138687;23;20117;-75
2024/01/14 05:41:12;;;;;;;0.20;0.20;;;;;;;-1.69;100.00;96116.81;6140285;23;20025;-75
2024/01/14 05:44:00;;;;;;;0.20;0.20;;;;;;;-1.86;100.00;96105.69;6138948;23;20323;-76
2024/01/14 05:46:46;;;;;;;0.10;0.10;;;;;;;-2.09;100.00;96110.97;6140115;23;20570;-76
2024/01/14 05:49:32;;;;;;;0.20;0.20;;;;;;;-2.02;100.00;96106.66;6117932;23;20337;-76
2024/01/14 05:52:18;;;;;;;0.20;0.20;;;;;;;-1.89;100.00;96105.22;6136924;23;20052;-78
2024/01/14 05:55:04;;;;;;;0.20;0.20;;;;;;;-2.15;100.00;96098.56;6138945;23;20088;-78
2024/01/14 05:57:50;;;;;;;0.20;0.20;;;;;;;-2.32;100.00;96103.16;6137597;23;20108;-79
2024/01/14 06:00:36;;;;;;;0.10;0.10;;;;;;;-2.08;100.00;96096.88;6137090;23;20112;-77
2024/01/14 06:03:22;;;;;;;0.20;0.20;;;;;;;-1.95;100.00;96096.25;6136715;23;20440;-77
2024/01/14 06:06:08;;;;;;;0.15;0.15;;;;;;;-1.81;100.00;96092.81;6136981;23;20248;-75
2024/01/14 06:08:54;;;;;;;0.20;0.20;;;;;;;-1.78;100.00;96099.53;6138335;23;20018;-77
2024/01/14 06:11:40;;;;;;;0.20;0.20;;;;;;;-1.83;100.00;96094.00;6134761;23;20545;-75
2024/01/14 06:14:25;;;;;;;0.20;0.20;;;;;;;-1.70;100.00;96094.19;6136760;23;20104;-75
2024/01/14 06:17:11;;;;;;;0.10;0.10;;;;;;;-1.81;100.00;96092.00;6137000;23;20021;-77
2024/01/14 06:19:57;;;;;;;0.20;0.20;;;;;;;-1.83;100.00;96088.75;6135550;23;20431;-75
2024/01/14 06:22:43;;;;;;;0.20;0.20;;;;;;;-1.73;100.00;96084.88;6136326;23;20097;-75
2024/01/14 06:25:29;;;;;;;0.10;0.10;;;;;;;-1.73;100.00;96084.88;6138229;23;20044;-74
2024/01/14 06:28:15;;;;;;;0.20;0.20;;;;;;;-1.66;100.00;96084.16;6135587;23;20025;-74
2024/01/14 06:31:00;;;;;;;0.20;0.20;;;;;;;-1.71;100.00;96085.53;6137834;23;20479;-74
2024/01/14 06:33:46;;;;;;;0.20;0.20;;;;;;;-1.75;100.00;96075.56;6132179;23;20252;-74
2024/01/14 06:36:32;;;;;;;0.20;0.20;;;;;;;-1.84;100.00;96087.94;6136772;23;20036;-74
2024/01/14 06:39:20;;;;;;;0.20;0.20;;;;;;;-1.91;100.00;96086.22;6138144;23;20555;-74
2024/01/14 06:42:06;;;;;;;0.20;0.20;;;;;;;-1.84;100.00;96087.94;6137037;23;20096;-75
2024/01/14 06:44:52;;;;;;;0.20;0.20;;;;;;;-1.74;100.00;96082.44;6139439;23;20100;-75
2024/01/14 06:47:38;;;;;;;0.20;0.20;;;;;;;-1.64;100.00;96082.16;6117781;23;20032;-77
2024/01/14 06:50:24;;;;;;;0.20;0.20;;;;;;;-1.60;100.00;96070.31;6137612;23;20021;-75
2024/01/14 06:53:09;;;;;;;0.20;0.20;;;;;;;-1.65;100.00;96068.22;6137447;23;20096;-76
2024/01/14 06:55:55;;;;;;;0.20;0.20;;;;;;;-1.74;100.00;96075.38;6138236;23;20484;-75
2024/01/14 06:58:41;;;;;;;0.20;0.20;;;;;;;-1.67;100.00;96061.53;6138651;23;20022;-74
2024/01/14 07:01:27;;;;;;;0.17;0.17;;;;;;;-1.61;100.00;96063.44;6134625;23;20539;-75
2024/01/14 07:04:14;;;;;;;0.20;0.20;;;;;;;-1.60;100.00;96055.38;6136929;23;20029;-74
2024/01/14 07:06:59;;;;;;;0.10;0.10;;;;;;;-1.60;100.00;96058.00;6135553;23;20088;-75
2024/01/14 07:09:45;;;;;;;0.20;0.20;;;;;;;-1.65;100.00;96059.53;6138199;23;20025;-76
2024/01/14 07:12:31;;;;;;;0.20;0.20;;;;;;;-1.63;100.00;96058.38;6135677;23;20025;-75
2024/01/14 07:15:17;;;;;;;0.20;0.20;;;;;;;-1.80;100.00;96047.22;6136908;23;20453;-73
2024/01/14 07:18:04;;;;;;;0.20;0.20;;;;;;;-1.76;100.00;96059.00;6137539;23;20033;-75
2024/01/14 07:20:50;;;;;;;0.20;0.20;;;;;;;-1.85;100.00;96052.22;6136856;23;20022;-76
2024/01/14 07:23:37;;;;;;;0.20;0.20;;;;;;;-1.76;100.00;96056.38;6137839;23;20140;-75
2024/01/14 07:26:23;;;;;;;0.20;0.20;;;;;;;-1.84;100.00;96051.22;6134897;23;20032;-75
2024/01/14 07:29:09;;;;;;;0.10;0.10;;;;;;;-1.73;100.00;96058.63;6116152;23;20029;-76
2024/01/14 07:31:55;;;;;;;0.20;0.20;;;;;;;-1.84;100.00;96053.84;6134868;23;20764;-74
2024/01/14 07:34:41;;;;;;;0.20;0.20;;;;;;;-1.91;100.00;96066.06;6135523;23;20026;-75
2024/01/14 07:37:30;;;;;;;0.10;0.10;;;;;;;-1.87;100.00;96058.63;6135453;23;20080;-75
2024/01/14 07:40:16;;;;;;;0.10;0.10;;;;;;;-1.92;100.00;96055.75;6135255;23;20433;-75
2024/01/14 07:43:02;;;;;;;0.20;0.20;;;;;;;-2.09;100.00;96055.91;6135317;23;20033;-75
2024/01/14 07:45:49;;;;;;;0.20;0.20;;;;;;;-1.96;100.00;96055.28;6135004;23;20468;-76
2024/01/14 07:48:36;;;;;;;0.20;0.20;;;;;;;-2.08;100.00;96051.50;6136238;23;20040;-75
2024/01/14 07:51:21;;;;;;;0.20;0.20;;;;;;;-1.91;100.00;96055.56;6115649;23;20032;-77
2024/01/14 07:54:07;;;;;;;0.20;0.20;;;;;;;-1.79;100.00;96048.88;6136640;23;20025;-75
2024/01/14 07:56:53;;;;;;;0.20;0.20;;;;;;;-1.79;100.00;96045.41;6137695;23;20471;-75
2024/01/14 07:59:39;;;;;;;0.20;0.20;;;;;;;-1.83;100.00;96047.59;6132736;23;20095;-76
2024/01/14 08:02:25;;;;;;;0.20;0.20;;;;;;;-1.91;100.00;96047.69;6134776;23;20026;-77
2024/01/14 08:05:11;;;;;;;0.20;0.20;;;;;;;-1.91;100.00;96033.78;6136167;23;20021;-77
2024/01/14 08:07:57;;;;;;;0.20;0.20;;;;;;;-2.06;100.00;96039.81;6135422;23;20075;-77
2024/01/14 08:10:43;;;;;;;0.20;0.20;;;;;;;-2.03;100.00;96047.31;6136588;23;20654;-76
2024/01/14 08:13:28;;;;;;;0.20;0.20;;;;;;;-2.20;100.00;96035.38;6135941;23;20063;-76
2024/01/14 08:16:14;;;;;;;0.20;0.20;;;;;;;-2.05;100.00;96044.06;6137556;23;20546;-76
2024/01/14 08:19:00;;;;;;;0.20;0.20;;;;;;;-1.96;100.00;96040.34;6134949;23;20022;-75
2024/01/14 08:21:47;;;;;;;0.20;0.20;;;;;;;-2.02;100.00;96054.22;6114062;23;20032;-75
2024/01/14 08:24:33;;;;;;;0.20;0.20;;;;;;;-1.86;100.00;96037.47;6137120;23;20369;-75
2024/01/14 08:27:19;;;;;;;0.20;0.20;;;;;;;-1.79;100.00;96034.94;6131184;23;20017;-77
2024/01/14 08:30:09;;;;;;;0.20;0.20;;;;;;;-1.98;100.00;96037.09;6135083;23;20386;-75
2024/01/14 08:32:55;;;;;;;0.20;0.20;;;;;;;-2.15;100.00;96025.16;6134183;23;20028;-76
2024/01/14 08:35:40;;;;;;;0.10;0.10;;;;;;;-2.07;100.00;96034.75;6117124;23;20025;-77
2024/01/14 08:38:26;;;;;;;0.20;0.20;;;;;;;-2.25;100.00;96038.53;6135845;23;20201;-75
2024/01/14 08:41:13;;;;;;;0.20;0.20;;;;;;;-2.07;100.00;96032.94;6136849;23;20026;-75
2024/01/14 08:44:00;;;;;;;0.20;0.20;;;;;;;-1.92;100.00;96024.28;6116276;23;20083;-75
2024/01/14 08:46:48;;;;;;;0.20;0.20;;;;;;;-1.84;100.00;96034.69;6135169;23;20338;-75
2024/01/14 08:49:34;;;;;;;0.15;0.15;;;;;;;-2.16;100.00;96026.16;6135406;23;20048;-76
2024/01/14 08:52:20;;;;;;;0.20;0.20;;;;;;;-2.21;100.00;96020.63;6133708;23;20056;-76
2024/01/14 08:55:07;;;;;;;0.20;0.20;;;;;;;-2.33;100.00;96024.69;6137870;23;20025;-75
2024/01/14 08:57:54;;;;;;;0.20;0.20;;;;;;;-2.17;100.00;96019.28;6114351;23;20029;-75
2024/01/14 09:00:40;;;;;;;0.20;0.20;;;;;;;-1.90;100.00;96015.22;6135332;23;20126;-75
2024/01/14 09:03:26;;;;;;;0.20;0.20;;;;;;;-1.96;100.00;96016.75;6134808;23;20031;-74
2024/01/14 09:06:12;;;;;;;0.20;0.20;;;;;;;-1.77;100.00;96025.91;6136570;23;20428;-75
2024/01/14 09:08:58;;;;;;;0.20;0.20;;;;;;;-1.84;100.00;96011.88;6136723;23;20512;-76
2024/01/14 09:11:45;;;;;;;0.20;0.20;;;;;;;-2.00;100.00;96019.94;6136844;23;20026;-76
2024/01/14 09:14:32;;;;;;;0.20;0.20;;;;;;;-1.89;100.00;96021.28;6135477;23;20033;-75
2024/01/14 09:17:17;;;;;;;0.20;0.20;;;;;;;-1.79;100.00;96027.91;6134449;23;20056;-76
2024/01/14 09:20:04;;;;;;;0.20;0.20;;;;;;;-1.72;100.00;96027.97;6133946;23;20470;-74
2024/01/14 09:22:50;;;;;;;0.10;0.10;;;;;;;-1.54;100.00;96020.53;6137276;23;20371;-77
2024/01/14 09:25:36;;;;;;;0.20;0.20;;;;;;;-1.53;100.00;96027.41;6134864;23;20025;-75
2024/01/14 09:28:24;;;;;;;0.20;0.20;;;;;;;-1.68;100.00;96018.75;6136427;23;20079;-75
2024/01/14 09:31:12;;;;;;;0.20;0.20;;;;;;;-1.69;100.00;96030.22;6133233;23;20029;-77
2024/01/14 09:33:57;;;;;;;0.10;0.10;;;;;;;-1.57;100.00;96026.13;6094266;23;20029;-76
2024/01/14 09:36:43;;;;;;;0.20;0.20;;;;;;;-1.73;100.00;96031.56;6135072;23;20025;-76
2024/01/14 09:39:29;;;;;;;0.20;0.20;;;;;;;-1.48;100.00;96030.31;6091732;23;20761;-75
2024/01/14 09:42:22;;;;;;;0.20;0.20;;;;;;;-1.44;100.00;96025.50;6133424;23;20028;-78
2024/01/14 09:45:08;;;;;;;0.20;0.20;;;;;;;-1.25;100.00;96029.31;6133989;23;20419;-76
2024/01/14 09:47:56;;;;;;;0.20;0.20;;;;;;;-1.43;100.00;96029.72;6136064;23;20507;-76
2024/01/14 09:50:42;;;;;;;0.20;0.20;;;;;;;-1.16;100.00;96034.31;6136729;23;20029;-74
2024/01/14 09:53:28;;;;;;;0.30;0.30;;;;;;;-1.20;100.00;96035.66;6134680;23;20053;-76
2024/01/14 09:56:14;;;;;;;0.20;0.20;;;;;;;-1.34;100.00;96033.06;6135525;23;20470;-78
2024/01/14 09:59:02;;;;;;;0.20;0.20;;;;;;;-1.25;100.00;96032.75;6115798;23;20414;-76
2024/01/14 10:01:50;;;;;;;0.20;0.20;;;;;;;-1.58;100.00;96026.31;6085698;23;20026;-76
2024/01/14 10:04:39;;;;;;;0.20;0.20;;;;;;;-1.26;100.00;96022.44;6110759;23;20027;-76
2024/01/14 10:07:26;;;;;;;0.20;0.20;;;;;;;-1.34;100.00;96019.94;6117773;23;20032;-76
2024/01/14 10:10:12;;;;;;;0.20;0.20;;;;;;;-1.58;100.00;96029.75;6118147;23;20028;-75
2024/01/14 10:12:58;;;;;;;0.20;0.20;;;;;;;-1.18;100.00;96023.16;6114912;23;20482;-77
2024/01/14 10:15:44;;;;;;;0.20;0.20;;;;;;;-1.13;100.00;96012.09;6119805;23;20055;-76
2024/01/14 10:18:30;;;;;;;0.20;0.20;;;;;;;-1.02;100.00;96013.41;6091808;23;20021;-76
2024/01/14 10:21:16;;;;;;;0.20;0.20;;;;;;;-1.48;100.00;96014.56;6115173;23;20076;-78
2024/01/14 10:24:05;;;;;;;0.20;0.20;;;;;;;-1.51;100.00;96009.66;6131297;23;20067;-76
2024/01/14 10:26:53;;;;;;;0.20;0.20;;;;;;;-1.95;100.00;95993.97;6136363;23;20523;-77
2024/01/14 10:29:40;;;;;;;0.20;0.20;;;;;;;-1.71;100.00;95998.94;6135569;23;20456;-77
2024/01/14 10:32:26;;;;;;;0.20;0.20;;;;;;;-1.38;100.00;95985.38;6137330;23;20018;-76
2024/01/14 10:35:13;;;;;;;0.20;0.20;;;;;;;-1.75;100.00;95981.94;6137275;23;20031;-75
2024/01/14 10:37:59;;;;;;;0.20;0.20;;;;;;;-1.69;100.00;95980.38;6137788;23;20263;-76
2024/01/14 10:40:45;;;;;;;0.20;0.20;;;;;;;-1.87;100.00;95972.06;6096368;23;20457;-75
2024/01/14 10:43:33;;;;;;;0.20;0.20;;;;;;;-1.75;100.00;95976.69;6130351;23;20180;-76
2024/01/14 10:46:21;;;;;;;0.20;0.20;;;;;;;-1.44;100.00;95973.81;6135127;23;20025;-77
2024/01/14 10:49:08;;;;;;;0.20;0.20;;;;;;;-1.10;100.00;95964.44;6134557;23;20093;-77
2024/01/14 10:52:08;;;;;;;0.20;0.20;;;;;;;-1.31;100.00;95959.22;6136189;23;20457;-76
2024/01/14 10:54:56;;;;;;;0.20;0.20;;;;;;;-1.35;100.00;95961.38;6135599;23;20036;-76
2024/01/14 10:57:44;;;;;;;0.20;0.20;;;;;;;-1.03;100.00;95954.81;6136760;23;20021;-76
2024/01/14 11:00:35;;;;;;;0.20;0.20;;;;;;;-0.85;100.00;95951.75;6136957;23;20096;-75
2024/01/14 11:03:23;;;;;;;0.23;0.23;;;;;;;-1.24;100.00;95952.22;6138479;23;20453;-76
2024/01/14 11:06:10;;;;;;;0.20;0.20;;;;;;;-1.55;100.00;95944.63;6137840;23;20033;-76
2024/01/14 11:08:56;;;;;;;0.20;0.20;;;;;;;-1.65;100.00;95949.34;6119383;23;20121;-76
2024/01/14 11:11:50;;;;;;;0.20;0.20;;;;;;;-1.30;100.00;95945.09;6117781;23;20651;-75
2024/01/14 11:15:01;;;;;;;0.17;0.17;;;;;;;-1.02;100.00;95932.00;6116145;23;20405;-76
2024/01/14 11:18:01;;;;;;;0.25;0.25;;;;;;;-0.78;100.00;95926.34;6139687;23;20025;-75
2024/01/14 11:20:58;;;;;;;0.20;0.20;;;;;;;-0.94;100.00;95916.91;6112101;23;20021;-75
2024/01/14 11:23:44;;;;;;;0.20;0.20;;;;;;;-0.74;100.00;95911.81;6137319;23;20116;-77
2024/01/14 11:26:30;;;;;;;0.25;0.25;;;;;;;-0.55;100.00;95905.06;6136327;23;20131;-74
2024/01/14 11:29:33;;;;;;;0.20;0.20;;;;;;;-0.50;100.00;95902.69;6136958;23;20211;-76
2024/01/14 11:32:21;;;;;;;0.20;0.20;;;;;;;-1.06;100.00;95896.63;6135888;23;20091;-76
2024/01/14 11:35:08;;;;;;;0.20;0.20;;;;;;;-1.19;100.00;95897.31;6136406;23;20084;-76
2024/01/14 11:37:54;;;;;;;0.20;0.20;;;;;;;-0.83;100.00;95891.16;6137894;23;20508;-76
2024/01/14 11:40:40;;;;;;;0.20;0.20;;;;;;;-0.79;100.00;95873.97;6128299;23;20036;-75
2024/01/14 11:43:28;;;;;;;0.20;0.20;;;;;;;-0.78;100.00;95878.22;6121093;23;20029;-75
2024/01/14 11:46:40;;;;;;;0.30;0.30;;;;;;;-0.85;100.00;95875.59;6113690;23;20021;-77
2024/01/14 11:49:26;;;;;;;;;;;;;;;-0.74;100.00;95867.16;6128076;23;20398;-76
2024/01/14 11:52:12;;;;;;;0.20;0.20;;;;;;;-0.65;100.00;95858.13;6123606;23;19916;-76
2024/01/14 11:54:59;;;;;;;0.20;0.20;;;;;;;-1.07;100.00;95855.59;6084116;23;20452;-76
2024/01/14 11:57:46;;;;;;;0.20;0.20;;;;;;;-1.40;100.00;95848.28;6122294;23;20139;-75
2024/01/14 12:00:34;;;;;;;0.20;0.20;;;;;;;-1.33;100.00;95848.31;6122490;23;20032;-77
2024/01/14 12:03:21;;;;;;;0.20;0.20;;;;;;;-1.32;100.00;95835.03;6123556;23;20032;-76
2024/01/14 12:06:07;;;;;;;0.20;0.20;;;;;;;-1.41;100.00;95839.56;6125306;23;20026;-75
2024/01/14 12:09:00;;;;;;;0.20;0.20;;;;;;;-1.33;100.00;95830.75;6123605;23;20047;-75
2024/01/14 12:11:46;;;;;;;0.20;0.20;;;;;;;-0.93;100.00;95823.19;6124632;23;20574;-76
2024/01/14 12:14:37;;;;;;;0.20;0.20;;;;;;;-1.09;100.00;95819.00;6133265;23;20032;-76
2024/01/14 12:17:22;;;;;;;0.13;0.13;;;;;;;-1.43;100.00;95815.31;6135146;23;20032;-76
2024/01/14 12:20:09;;;;;;;0.20;0.20;;;;;;;-1.63;100.00;95810.88;6117596;23;20029;-76
2024/01/14 12:23:04;;;;;;;0.20;0.20;;;;;;;-1.47;100.00;95811.47;6136919;23;20025;-75
2024/01/14 12:25:50;;;;;;;0.20;0.20;;;;;;;-1.39;100.00;95801.84;6136214;23;20216;-77
2024/01/14 12:28:38;;;;;;;0.20;0.20;;;;;;;-1.87;100.00;95798.97;6115399;23;20108;-75
2024/01/14 12:31:25;;;;;;;0.20;0.20;;;;;;;-2.07;100.00;95799.59;6135178;23;20535;-76
2024/01/14 12:34:11;;;;;;;0.20;0.20;;;;;;;-1.94;100.00;95782.38;6112648;23;20060;-76
2024/01/14 12:37:00;;;;;;;0.20;0.20;;;;;;;-1.85;100.00;95774.19;6133705;23;20036;-75
2024/01/14 12:39:46;;;;;;;0.20;0.20;;;;;;;-1.53;100.00;95774.66;6135526;23;20369;-76
2024/01/14 12:42:32;;;;;;;0.20;0.20;;;;;;;-1.75;100.00;95772.06;6136275;23;20029;-77
2024/01/14 12:45:18;;;;;;;0.20;0.20;;;;;;;-1.76;100.00;95761.75;6133452;23;20108;-76
2024/01/14 12:48:04;;;;;;;0.20;0.20;;;;;;;-1.66;100.00;95754.38;6134578;23;20326;-76
2024/01/14 12:50:58;;;;;;;0.20;0.20;;;;;;;-1.87;100.00;95757.81;6137815;23;20105;-77
2024/01/14 12:53:44;;;;;;;0.20;0.20;;;;;;;-1.59;100.00;95741.31;6135044;23;20369;-75